sensor_id;sensor_type;location;lat;lon;timestamp;temperature;humidity
35607;DHT22;21729;58.392;15.656;2022-11-20T00:01:14;-0.30;29.60
35607;DHT22;21729;58.392;15.656;2022-11-20T00:03:42;-0.40;32.10
35607;DHT22;21729;58.392;15.656;2022-11-20T00:06:12;-0.60;26.80
35607;DHT22;21729;58.392;15.656;2022-11-20T00:08:39;-0.80;48.30
35607;DHT22;21729;58.392;15.656;2022-11-20T00:11:12;-0.50;53.90
35607;DHT22;21729;58.392;15.656;2022-11-20T00:13:40;-0.80;64.80
35607;DHT22;21729;58.392;15.656;2022-11-20T00:16:09;-0.80;62.30
35607;DHT22;21729;58.392;15.656;2022-11-20T00:18:37;-0.50;50.80
35607;DHT22;21729;58.392;15.656;2022-11-20T00:21:05;-0.60;55.70
35607;DHT22;21729;58.392;15.656;2022-11-20T00:23:33;-0.80;38.30
35607;DHT22;21729;58.392;15.656;2022-11-20T00:26:05;-0.70;53.70
35607;DHT22;21729;58.392;15.656;2022-11-20T00:28:32;-0.80;53.20
35607;DHT22;21729;58.392;15.656;2022-11-20T00:31:03;-0.80;64.30
35607;DHT22;21729;58.392;15.656;2022-11-20T00:33:31;-0.80;59.80
35607;DHT22;21729;58.392;15.656;2022-11-20T00:36:01;-0.80;78.40
35607;DHT22;21729;58.392;15.656;2022-11-20T00:38:29;-0.80;84.40
35607;DHT22;21729;58.392;15.656;2022-11-20T00:40:59;-0.80;97.70
35607;DHT22;21729;58.392;15.656;2022-11-20T00:43:27;-0.80;99.90
35607;DHT22;21729;58.392;15.656;2022-11-20T00:45:57;-0.70;99.90
35607;DHT22;21729;58.392;15.656;2022-11-20T00:48:24;-0.80;99.90
35607;DHT22;21729;58.392;15.656;2022-11-20T00:50:51;-0.70;99.90
35607;DHT22;21729;58.392;15.656;2022-11-20T00:53:18;-0.70;99.90
35607;DHT22;21729;58.392;15.656;2022-11-20T00:55:53;-0.70;99.90
35607;DHT22;21729;58.392;15.656;2022-11-20T00:58:22;-0.60;99.90
35607;DHT22;21729;58.392;15.656;2022-11-20T01:00:49;-0.70;99.90
35607;DHT22;21729;58.392;15.656;2022-11-20T01:03:16;-0.30;99.90
35607;DHT22;21729;58.392;15.656;2022-11-20T01:05:44;-0.60;99.90
35607;DHT22;21729;58.392;15.656;2022-11-20T01:08:11;-0.40;99.90
35607;DHT22;21729;58.392;15.656;2022-11-20T01:10:38;-0.30;99.90
35607;DHT22;21729;58.392;15.656;2022-11-20T01:13:05;-0.60;99.90
35607;DHT22;21729;58.392;15.656;2022-11-20T01:15:51;-0.60;99.90
35607;DHT22;21729;58.392;15.656;2022-11-20T01:18:18;-0.60;99.90
35607;DHT22;21729;58.392;15.656;2022-11-20T01:20:45;-0.30;99.90
35607;DHT22;21729;58.392;15.656;2022-11-20T01:23:12;-0.50;99.90
35607;DHT22;21729;58.392;15.656;2022-11-20T01:25:39;-0.60;99.10
35607;DHT22;21729;58.392;15.656;2022-11-20T01:28:06;-0.60;75.10
35607;DHT22;21729;58.392;15.656;2022-11-20T01:30:33;-0.20;70.90
35607;DHT22;21729;58.392;15.656;2022-11-20T01:33:01;-0.60;74.80
35607;DHT22;21729;58.392;15.656;2022-11-20T01:35:28;-0.60;70.50
35607;DHT22;21729;58.392;15.656;2022-11-20T01:37:55;-0.50;53.40
35607;DHT22;21729;58.392;15.656;2022-11-20T01:40:22;-0.30;49.80
35607;DHT22;21729;58.392;15.656;2022-11-20T01:42:56;-0.50;45.00
35607;DHT22;21729;58.392;15.656;2022-11-20T01:46:02;-0.50;43.10
35607;DHT22;21729;58.392;15.656;2022-11-20T01:48:36;-0.50;45.70
35607;DHT22;21729;58.392;15.656;2022-11-20T01:51:07;-0.30;55.10
35607;DHT22;21729;58.392;15.656;2022-11-20T01:53:37;-0.40;48.60
35607;DHT22;21729;58.392;15.656;2022-11-20T01:56:09;-0.40;51.20
35607;DHT22;21729;58.392;15.656;2022-11-20T01:58:39;-0.40;48.80
35607;DHT22;21729;58.392;15.656;2022-11-20T02:01:09;-0.50;44.90
35607;DHT22;21729;58.392;15.656;2022-11-20T02:03:37;-0.40;52.60
35607;DHT22;21729;58.392;15.656;2022-11-20T02:06:10;-0.40;61.20
35607;DHT22;21729;58.392;15.656;2022-11-20T02:08:39;-0.40;72.90
35607;DHT22;21729;58.392;15.656;2022-11-20T02:11:06;-0.40;72.80
35607;DHT22;21729;58.392;15.656;2022-11-20T02:13:33;-0.40;79.00
35607;DHT22;21729;58.392;15.656;2022-11-20T02:16:13;0.00;80.70
35607;DHT22;21729;58.392;15.656;2022-11-20T02:18:42;-0.40;83.40
35607;DHT22;21729;58.392;15.656;2022-11-20T02:21:19;-0.10;96.70
35607;DHT22;21729;58.392;15.656;2022-11-20T02:24:11;-0.40;96.50
35607;DHT22;21729;58.392;15.656;2022-11-20T02:26:44;-0.40;99.90
35607;DHT22;21729;58.392;15.656;2022-11-20T02:29:14;-0.40;99.90
35607;DHT22;21729;58.392;15.656;2022-11-20T02:31:43;-0.40;99.90
35607;DHT22;21729;58.392;15.656;2022-11-20T02:34:10;-0.40;99.90
35607;DHT22;21729;58.392;15.656;2022-11-20T02:36:39;-0.30;99.90
35607;DHT22;21729;58.392;15.656;2022-11-20T02:39:07;-0.40;99.90
35607;DHT22;21729;58.392;15.656;2022-11-20T02:41:38;-0.30;99.90
35607;DHT22;21729;58.392;15.656;2022-11-20T02:44:05;-0.20;99.90
35607;DHT22;21729;58.392;15.656;2022-11-20T02:46:33;-0.10;99.90
35607;DHT22;21729;58.392;15.656;2022-11-20T02:49:01;-0.40;99.90
35607;DHT22;21729;58.392;15.656;2022-11-20T02:51:28;-0.40;99.90
35607;DHT22;21729;58.392;15.656;2022-11-20T02:53:55;-0.10;93.40
35607;DHT22;21729;58.392;15.656;2022-11-20T02:56:23;-0.30;92.70
35607;DHT22;21729;58.392;15.656;2022-11-20T02:58:53;-0.30;88.40
35607;DHT22;21729;58.392;15.656;2022-11-20T03:01:20;-0.30;94.10
35607;DHT22;21729;58.392;15.656;2022-11-20T03:03:47;-0.30;93.80
35607;DHT22;21729;58.392;15.656;2022-11-20T03:06:15;-0.30;84.80
35607;DHT22;21729;58.392;15.656;2022-11-20T03:08:42;-0.30;76.40
35607;DHT22;21729;58.392;15.656;2022-11-20T03:11:09;-0.30;83.40
35607;DHT22;21729;58.392;15.656;2022-11-20T03:13:36;-0.30;85.30
35607;DHT22;21729;58.392;15.656;2022-11-20T03:16:10;-0.30;95.20
35607;DHT22;21729;58.392;15.656;2022-11-20T03:18:38;-0.30;95.00
35607;DHT22;21729;58.392;15.656;2022-11-20T03:21:06;-0.30;99.30
35607;DHT22;21729;58.392;15.656;2022-11-20T03:23:33;-0.30;99.90
35607;DHT22;21729;58.392;15.656;2022-11-20T03:26:09;-0.30;92.60
35607;DHT22;21729;58.392;15.656;2022-11-20T03:28:36;-0.10;99.50
35607;DHT22;21729;58.392;15.656;2022-11-20T03:31:08;-0.30;99.90
35607;DHT22;21729;58.392;15.656;2022-11-20T03:33:35;-0.30;99.90
35607;DHT22;21729;58.392;15.656;2022-11-20T03:36:03;-0.30;99.90
35607;DHT22;21729;58.392;15.656;2022-11-20T03:38:31;-0.30;99.90
35607;DHT22;21729;58.392;15.656;2022-11-20T03:40:59;-0.30;99.90
35607;DHT22;21729;58.392;15.656;2022-11-20T03:43:27;-0.30;99.90
35607;DHT22;21729;58.392;15.656;2022-11-20T03:45:54;-0.20;99.90
35607;DHT22;21729;58.392;15.656;2022-11-20T03:48:23;-0.30;99.90
35607;DHT22;21729;58.392;15.656;2022-11-20T03:50:50;-0.30;99.90
35607;DHT22;21729;58.392;15.656;2022-11-20T03:53:17;-0.30;99.90
35607;DHT22;21729;58.392;15.656;2022-11-20T03:55:50;-0.30;99.90
35607;DHT22;21729;58.392;15.656;2022-11-20T03:58:17;-0.30;99.90
35607;DHT22;21729;58.392;15.656;2022-11-20T04:00:44;-0.30;99.90
35607;DHT22;21729;58.392;15.656;2022-11-20T04:03:11;-0.30;99.90
35607;DHT22;21729;58.392;15.656;2022-11-20T04:05:39;-0.30;99.90
35607;DHT22;21729;58.392;15.656;2022-11-20T04:08:07;-0.30;99.90
35607;DHT22;21729;58.392;15.656;2022-11-20T04:10:34;-0.30;99.90
35607;DHT22;21729;58.392;15.656;2022-11-20T04:13:01;-0.30;99.90
35607;DHT22;21729;58.392;15.656;2022-11-20T04:15:28;-0.30;99.50
35607;DHT22;21729;58.392;15.656;2022-11-20T04:17:55;-0.30;96.90
35607;DHT22;21729;58.392;15.656;2022-11-20T04:20:22;-0.30;99.90
35607;DHT22;21729;58.392;15.656;2022-11-20T04:22:53;-0.30;99.90
35607;DHT22;21729;58.392;15.656;2022-11-20T04:25:20;-0.20;99.90
35607;DHT22;21729;58.392;15.656;2022-11-20T04:27:47;-0.30;99.90
35607;DHT22;21729;58.392;15.656;2022-11-20T04:30:14;-0.40;99.90
35607;DHT22;21729;58.392;15.656;2022-11-20T04:32:41;-0.30;99.90
35607;DHT22;21729;58.392;15.656;2022-11-20T04:35:08;-0.40;99.90
35607;DHT22;21729;58.392;15.656;2022-11-20T04:37:35;-0.20;99.90
35607;DHT22;21729;58.392;15.656;2022-11-20T04:40:05;-0.40;99.90
35607;DHT22;21729;58.392;15.656;2022-11-20T04:42:32;-0.40;90.10
35607;DHT22;21729;58.392;15.656;2022-11-20T04:44:59;-0.40;95.10
35607;DHT22;21729;58.392;15.656;2022-11-20T04:47:26;-0.40;99.90
35607;DHT22;21729;58.392;15.656;2022-11-20T04:49:53;-0.40;96.10
35607;DHT22;21729;58.392;15.656;2022-11-20T04:52:20;-0.40;97.70
35607;DHT22;21729;58.392;15.656;2022-11-20T04:54:47;-0.40;94.00
35607;DHT22;21729;58.392;15.656;2022-11-20T04:57:17;-0.40;98.30
35607;DHT22;21729;58.392;15.656;2022-11-20T04:59:44;-0.40;97.20
35607;DHT22;21729;58.392;15.656;2022-11-20T05:02:11;-0.20;84.90
35607;DHT22;21729;58.392;15.656;2022-11-20T05:04:38;-0.30;77.60
35607;DHT22;21729;58.392;15.656;2022-11-20T05:07:05;-0.40;73.20
35607;DHT22;21729;58.392;15.656;2022-11-20T05:09:32;-0.50;75.20
35607;DHT22;21729;58.392;15.656;2022-11-20T05:11:59;-0.40;77.70
35607;DHT22;21729;58.392;15.656;2022-11-20T05:14:28;-0.50;74.70
35607;DHT22;21729;58.392;15.656;2022-11-20T05:16:55;-0.50;54.00
35607;DHT22;21729;58.392;15.656;2022-11-20T05:19:22;-0.50;54.50
35607;DHT22;21729;58.392;15.656;2022-11-20T05:21:49;-0.30;53.50
35607;DHT22;21729;58.392;15.656;2022-11-20T05:24:16;-0.50;42.20
35607;DHT22;21729;58.392;15.656;2022-11-20T05:26:43;-0.50;41.70
35607;DHT22;21729;58.392;15.656;2022-11-20T05:29:10;-0.30;38.50
35607;DHT22;21729;58.392;15.656;2022-11-20T05:31:40;-0.50;41.70
35607;DHT22;21729;58.392;15.656;2022-11-20T05:34:07;-0.20;33.30
35607;DHT22;21729;58.392;15.656;2022-11-20T05:36:35;-0.60;43.80
35607;DHT22;21729;58.392;15.656;2022-11-20T05:39:02;-0.60;25.70
35607;DHT22;21729;58.392;15.656;2022-11-20T05:41:29;-0.60;32.50
35607;DHT22;21729;58.392;15.656;2022-11-20T05:43:56;-0.40;34.80
35607;DHT22;21729;58.392;15.656;2022-11-20T05:46:24;-0.30;32.20
35607;DHT22;21729;58.392;15.656;2022-11-20T05:48:55;-0.30;28.90
35607;DHT22;21729;58.392;15.656;2022-11-20T05:51:23;-0.60;34.60
35607;DHT22;21729;58.392;15.656;2022-11-20T05:53:50;-0.60;33.20
35607;DHT22;21729;58.392;15.656;2022-11-20T05:56:19;-0.60;35.20
35607;DHT22;21729;58.392;15.656;2022-11-20T05:58:47;-0.60;30.70
35607;DHT22;21729;58.392;15.656;2022-11-20T06:01:17;-0.60;25.60
35607;DHT22;21729;58.392;15.656;2022-11-20T06:03:45;-0.30;32.20
35607;DHT22;21729;58.392;15.656;2022-11-20T06:06:15;-0.30;21.80
35607;DHT22;21729;58.392;15.656;2022-11-20T06:08:43;-0.60;26.20
35607;DHT22;21729;58.392;15.656;2022-11-20T06:11:11;-0.40;34.20
35607;DHT22;21729;58.392;15.656;2022-11-20T06:13:39;-0.60;35.80
35607;DHT22;21729;58.392;15.656;2022-11-20T06:16:06;-0.60;30.80
35607;DHT22;21729;58.392;15.656;2022-11-20T06:18:34;-0.60;38.00
35607;DHT22;21729;58.392;15.656;2022-11-20T06:21:02;-0.60;31.90
35607;DHT22;21729;58.392;15.656;2022-11-20T06:23:32;-0.60;36.10
35607;DHT22;21729;58.392;15.656;2022-11-20T06:26:01;-0.70;31.50
35607;DHT22;21729;58.392;15.656;2022-11-20T06:28:29;-0.60;34.70
35607;DHT22;21729;58.392;15.656;2022-11-20T06:30:56;-0.60;35.80
35607;DHT22;21729;58.392;15.656;2022-11-20T06:33:24;-0.70;35.90
35607;DHT22;21729;58.392;15.656;2022-11-20T06:35:51;-0.40;36.20
35607;DHT22;21729;58.392;15.656;2022-11-20T06:38:18;-0.70;38.10
35607;DHT22;21729;58.392;15.656;2022-11-20T06:40:46;-0.60;33.00
35607;DHT22;21729;58.392;15.656;2022-11-20T06:43:13;-0.70;38.20
35607;DHT22;21729;58.392;15.656;2022-11-20T06:45:40;-0.60;29.20
35607;DHT22;21729;58.392;15.656;2022-11-20T06:48:08;-0.70;36.60
35607;DHT22;21729;58.392;15.656;2022-11-20T06:50:36;-0.60;32.80
35607;DHT22;21729;58.392;15.656;2022-11-20T06:53:04;-0.40;19.60
35607;DHT22;21729;58.392;15.656;2022-11-20T06:55:32;-0.40;27.10
35607;DHT22;21729;58.392;15.656;2022-11-20T06:58:00;-0.70;26.40
35607;DHT22;21729;58.392;15.656;2022-11-20T07:00:27;-0.60;27.50
35607;DHT22;21729;58.392;15.656;2022-11-20T07:02:56;-0.70;27.80
35607;DHT22;21729;58.392;15.656;2022-11-20T07:05:23;-0.60;28.00
35607;DHT22;21729;58.392;15.656;2022-11-20T07:07:50;-0.60;24.20
35607;DHT22;21729;58.392;15.656;2022-11-20T07:10:17;-0.60;35.00
35607;DHT22;21729;58.392;15.656;2022-11-20T07:12:49;-0.60;25.00
35607;DHT22;21729;58.392;15.656;2022-11-20T07:15:18;-0.60;24.90
35607;DHT22;21729;58.392;15.656;2022-11-20T07:17:45;-0.60;23.90
35607;DHT22;21729;58.392;15.656;2022-11-20T07:20:13;-0.60;21.10
35607;DHT22;21729;58.392;15.656;2022-11-20T07:22:40;-0.50;13.80
35607;DHT22;21729;58.392;15.656;2022-11-20T07:25:08;-0.50;10.40
35607;DHT22;21729;58.392;15.656;2022-11-20T07:27:35;-0.50;11.70
35607;DHT22;21729;58.392;15.656;2022-11-20T07:30:03;-0.40;3.80
35607;DHT22;21729;58.392;15.656;2022-11-20T07:32:32;-0.50;6.70
35607;DHT22;21729;58.392;15.656;2022-11-20T07:34:59;-0.50;1.00
35607;DHT22;21729;58.392;15.656;2022-11-20T07:37:26;-0.50;1.00
35607;DHT22;21729;58.392;15.656;2022-11-20T07:39:53;-0.40;1.00
35607;DHT22;21729;58.392;15.656;2022-11-20T07:42:20;-0.10;1.00
35607;DHT22;21729;58.392;15.656;2022-11-20T07:44:47;-0.40;1.00
35607;DHT22;21729;58.392;15.656;2022-11-20T07:47:15;-0.40;1.00
35607;DHT22;21729;58.392;15.656;2022-11-20T07:49:43;-0.30;1.20
35607;DHT22;21729;58.392;15.656;2022-11-20T07:52:10;-0.30;1.00
35607;DHT22;21729;58.392;15.656;2022-11-20T07:54:37;-0.30;1.00
35607;DHT22;21729;58.392;15.656;2022-11-20T07:57:04;-0.20;1.00
35607;DHT22;21729;58.392;15.656;2022-11-20T07:59:31;-0.20;1.00
35607;DHT22;21729;58.392;15.656;2022-11-20T08:01:58;-0.30;1.00
35607;DHT22;21729;58.392;15.656;2022-11-20T08:04:25;-0.30;1.00
35607;DHT22;21729;58.392;15.656;2022-11-20T08:06:54;-0.20;1.00
35607;DHT22;21729;58.392;15.656;2022-11-20T08:09:21;-0.20;1.00
35607;DHT22;21729;58.392;15.656;2022-11-20T08:11:48;-0.30;1.00
35607;DHT22;21729;58.392;15.656;2022-11-20T08:14:32;-0.20;1.00
35607;DHT22;21729;58.392;15.656;2022-11-20T08:16:59;-0.30;1.00
35607;DHT22;21729;58.392;15.656;2022-11-20T08:19:26;-0.20;1.00
35607;DHT22;21729;58.392;15.656;2022-11-20T08:21:55;-0.20;1.00
35607;DHT22;21729;58.392;15.656;2022-11-20T08:24:22;-0.10;1.00
35607;DHT22;21729;58.392;15.656;2022-11-20T08:26:50;-0.10;1.00
35607;DHT22;21729;58.392;15.656;2022-11-20T08:29:17;0.00;1.00
35607;DHT22;21729;58.392;15.656;2022-11-20T08:31:44;0.00;1.00
35607;DHT22;21729;58.392;15.656;2022-11-20T08:34:11;-0.30;1.00
35607;DHT22;21729;58.392;15.656;2022-11-20T08:36:39;0.00;1.00
35607;DHT22;21729;58.392;15.656;2022-11-20T08:39:07;0.00;1.00
35607;DHT22;21729;58.392;15.656;2022-11-20T08:41:34;0.00;1.00
35607;DHT22;21729;58.392;15.656;2022-11-20T08:44:04;0.00;1.00
35607;DHT22;21729;58.392;15.656;2022-11-20T08:46:33;0.00;1.00
35607;DHT22;21729;58.392;15.656;2022-11-20T08:49:02;0.00;1.00
35607;DHT22;21729;58.392;15.656;2022-11-20T08:51:29;0.10;1.00
35607;DHT22;21729;58.392;15.656;2022-11-20T08:53:56;0.00;1.00
35607;DHT22;21729;58.392;15.656;2022-11-20T08:56:24;0.10;1.00
35607;DHT22;21729;58.392;15.656;2022-11-20T08:58:52;0.30;1.00
35607;DHT22;21729;58.392;15.656;2022-11-20T09:01:19;0.10;1.00
35607;DHT22;21729;58.392;15.656;2022-11-20T09:03:46;0.40;1.00
35607;DHT22;21729;58.392;15.656;2022-11-20T09:06:14;0.20;1.00
35607;DHT22;21729;58.392;15.656;2022-11-20T09:08:41;0.30;1.00
35607;DHT22;21729;58.392;15.656;2022-11-20T09:11:09;0.20;1.00
35607;DHT22;21729;58.392;15.656;2022-11-20T09:13:37;0.40;1.00
35607;DHT22;21729;58.392;15.656;2022-11-20T09:16:06;0.40;1.00
35607;DHT22;21729;58.392;15.656;2022-11-20T09:18:34;0.40;1.00
35607;DHT22;21729;58.392;15.656;2022-11-20T09:21:05;0.40;1.00
35607;DHT22;21729;58.392;15.656;2022-11-20T09:23:33;0.40;1.00
35607;DHT22;21729;58.392;15.656;2022-11-20T09:26:02;0.40;1.00
35607;DHT22;21729;58.392;15.656;2022-11-20T09:28:30;0.60;1.00
35607;DHT22;21729;58.392;15.656;2022-11-20T09:30:58;0.80;1.00
35607;DHT22;21729;58.392;15.656;2022-11-20T09:33:26;0.50;1.00
35607;DHT22;21729;58.392;15.656;2022-11-20T09:35:53;0.40;1.00
35607;DHT22;21729;58.392;15.656;2022-11-20T09:38:20;0.30;1.00
35607;DHT22;21729;58.392;15.656;2022-11-20T09:40:54;0.50;1.00
35607;DHT22;21729;58.392;15.656;2022-11-20T09:43:29;0.20;1.00
35607;DHT22;21729;58.392;15.656;2022-11-20T09:46:07;0.30;1.00
35607;DHT22;21729;58.392;15.656;2022-11-20T09:48:44;0.30;1.00
35607;DHT22;21729;58.392;15.656;2022-11-20T09:51:21;0.20;1.00
35607;DHT22;21729;58.392;15.656;2022-11-20T09:54:00;0.20;1.00
35607;DHT22;21729;58.392;15.656;2022-11-20T09:56:34;0.20;1.00
35607;DHT22;21729;58.392;15.656;2022-11-20T09:59:05;0.30;1.00
35607;DHT22;21729;58.392;15.656;2022-11-20T10:01:36;0.50;1.00
35607;DHT22;21729;58.392;15.656;2022-11-20T10:04:12;0.20;1.00
35607;DHT22;21729;58.392;15.656;2022-11-20T10:06:44;0.30;1.00
35607;DHT22;21729;58.392;15.656;2022-11-20T10:09:21;0.50;1.00
35607;DHT22;21729;58.392;15.656;2022-11-20T10:11:59;0.30;1.00
35607;DHT22;21729;58.392;15.656;2022-11-20T10:14:34;0.50;1.00
35607;DHT22;21729;58.392;15.656;2022-11-20T10:17:15;0.20;1.00
35607;DHT22;21729;58.392;15.656;2022-11-20T10:19:55;0.20;1.00
35607;DHT22;21729;58.392;15.656;2022-11-20T10:22:42;0.20;1.00
35607;DHT22;21729;58.392;15.656;2022-11-20T10:25:15;0.20;1.00
35607;DHT22;21729;58.392;15.656;2022-11-20T10:28:02;0.20;1.00
35607;DHT22;21729;58.392;15.656;2022-11-20T10:30:36;0.10;1.00
35607;DHT22;21729;58.392;15.656;2022-11-20T10:33:09;0.30;1.00
35607;DHT22;21729;58.392;15.656;2022-11-20T10:35:41;0.30;1.00
35607;DHT22;21729;58.392;15.656;2022-11-20T10:38:14;0.40;1.00
35607;DHT22;21729;58.392;15.656;2022-11-20T10:40:44;0.40;1.00
35607;DHT22;21729;58.392;15.656;2022-11-20T10:43:14;0.40;1.00
35607;DHT22;21729;58.392;15.656;2022-11-20T10:45:51;0.30;1.00
35607;DHT22;21729;58.392;15.656;2022-11-20T10:48:23;0.50;1.00
35607;DHT22;21729;58.392;15.656;2022-11-20T10:50:59;0.40;1.00
35607;DHT22;21729;58.392;15.656;2022-11-20T10:53:44;0.50;1.00
35607;DHT22;21729;58.392;15.656;2022-11-20T10:56:19;0.50;1.00
35607;DHT22;21729;58.392;15.656;2022-11-20T10:58:56;0.50;1.00
35607;DHT22;21729;58.392;15.656;2022-11-20T11:01:27;0.30;1.00
35607;DHT22;21729;58.392;15.656;2022-11-20T11:03:55;0.50;1.00
35607;DHT22;21729;58.392;15.656;2022-11-20T11:06:29;0.40;1.00
35607;DHT22;21729;58.392;15.656;2022-11-20T11:09:03;0.40;1.00
35607;DHT22;21729;58.392;15.656;2022-11-20T11:11:33;0.40;1.00
35607;DHT22;21729;58.392;15.656;2022-11-20T11:14:07;0.30;1.00
35607;DHT22;21729;58.392;15.656;2022-11-20T11:16:34;0.40;1.00
35607;DHT22;21729;58.392;15.656;2022-11-20T11:19:07;0.30;1.00
35607;DHT22;21729;58.392;15.656;2022-11-20T11:21:39;0.30;1.00
35607;DHT22;21729;58.392;15.656;2022-11-20T11:24:20;0.50;1.00
35607;DHT22;21729;58.392;15.656;2022-11-20T11:26:53;0.40;1.00
35607;DHT22;21729;58.392;15.656;2022-11-20T11:29:21;0.40;1.00
35607;DHT22;21729;58.392;15.656;2022-11-20T11:31:49;0.40;1.00
35607;DHT22;21729;58.392;15.656;2022-11-20T11:34:18;0.30;1.00
35607;DHT22;21729;58.392;15.656;2022-11-20T11:36:52;0.30;1.00
35607;DHT22;21729;58.392;15.656;2022-11-20T11:39:21;0.50;1.00
35607;DHT22;21729;58.392;15.656;2022-11-20T11:41:48;0.50;1.00
35607;DHT22;21729;58.392;15.656;2022-11-20T11:44:19;0.20;15.80
35607;DHT22;21729;58.392;15.656;2022-11-20T11:47:09;0.20;18.20
35607;DHT22;21729;58.392;15.656;2022-11-20T11:49:39;0.50;12.20
35607;DHT22;21729;58.392;15.656;2022-11-20T11:52:12;0.20;1.20
35607;DHT22;21729;58.392;15.656;2022-11-20T11:54:45;0.20;1.00
35607;DHT22;21729;58.392;15.656;2022-11-20T11:57:28;0.20;1.00
35607;DHT22;21729;58.392;15.656;2022-11-20T12:00:02;0.10;12.60
35607;DHT22;21729;58.392;15.656;2022-11-20T12:02:36;0.40;12.70
35607;DHT22;21729;58.392;15.656;2022-11-20T12:05:13;0.10;6.70
35607;DHT22;21729;58.392;15.656;2022-11-20T12:07:45;0.10;19.80
35607;DHT22;21729;58.392;15.656;2022-11-20T12:10:20;0.20;21.70
35607;DHT22;21729;58.392;15.656;2022-11-20T12:12:52;0.20;33.10
35607;DHT22;21729;58.392;15.656;2022-11-20T12:15:33;0.20;30.30
35607;DHT22;21729;58.392;15.656;2022-11-20T12:18:01;0.10;35.10
35607;DHT22;21729;58.392;15.656;2022-11-20T12:20:33;0.40;35.70
35607;DHT22;21729;58.392;15.656;2022-11-20T12:23:08;0.20;39.20
35607;DHT22;21729;58.392;15.656;2022-11-20T12:25:38;0.10;28.80
35607;DHT22;21729;58.392;15.656;2022-11-20T12:28:20;0.10;36.20
35607;DHT22;21729;58.392;15.656;2022-11-20T12:30:56;0.10;48.50
35607;DHT22;21729;58.392;15.656;2022-11-20T12:33:48;0.20;47.40
35607;DHT22;21729;58.392;15.656;2022-11-20T12:36:27;0.10;43.80
35607;DHT22;21729;58.392;15.656;2022-11-20T12:41:58;0.10;43.20
35607;DHT22;21729;58.392;15.656;2022-11-20T12:44:59;0.10;33.90
35607;DHT22;21729;58.392;15.656;2022-11-20T12:47:50;0.30;44.60
35607;DHT22;21729;58.392;15.656;2022-11-20T12:50:25;0.10;39.70
35607;DHT22;21729;58.392;15.656;2022-11-20T12:52:57;0.30;49.00
35607;DHT22;21729;58.392;15.656;2022-11-20T12:55:37;0.30;53.70
35607;DHT22;21729;58.392;15.656;2022-11-20T12:58:12;0.00;60.40
35607;DHT22;21729;58.392;15.656;2022-11-20T13:00:46;0.00;53.30
35607;DHT22;21729;58.392;15.656;2022-11-20T13:03:36;0.00;56.40
35607;DHT22;21729;58.392;15.656;2022-11-20T13:06:11;0.00;62.80
35607;DHT22;21729;58.392;15.656;2022-11-20T13:08:41;0.00;67.00
35607;DHT22;21729;58.392;15.656;2022-11-20T13:11:15;0.00;68.40
35607;DHT22;21729;58.392;15.656;2022-11-20T13:14:00;0.00;67.90
35607;DHT22;21729;58.392;15.656;2022-11-20T13:16:35;0.00;63.90
35607;DHT22;21729;58.392;15.656;2022-11-20T13:19:03;0.00;69.40
35607;DHT22;21729;58.392;15.656;2022-11-20T13:21:38;0.00;70.40
35607;DHT22;21729;58.392;15.656;2022-11-20T13:24:20;0.00;67.50
35607;DHT22;21729;58.392;15.656;2022-11-20T13:27:00;0.00;69.30
35607;DHT22;21729;58.392;15.656;2022-11-20T13:29:27;0.00;65.70
35607;DHT22;21729;58.392;15.656;2022-11-20T13:32:03;0.00;60.80
35607;DHT22;21729;58.392;15.656;2022-11-20T13:34:30;0.00;43.10
35607;DHT22;21729;58.392;15.656;2022-11-20T13:36:59;0.00;60.40
35607;DHT22;21729;58.392;15.656;2022-11-20T13:39:33;0.30;58.00
35607;DHT22;21729;58.392;15.656;2022-11-20T13:42:01;0.00;56.00
35607;DHT22;21729;58.392;15.656;2022-11-20T13:44:33;0.00;51.90
35607;DHT22;21729;58.392;15.656;2022-11-20T13:47:03;0.00;54.80
35607;DHT22;21729;58.392;15.656;2022-11-20T13:49:32;0.00;48.10
35607;DHT22;21729;58.392;15.656;2022-11-20T13:52:22;0.20;54.10
35607;DHT22;21729;58.392;15.656;2022-11-20T13:55:05;-0.10;63.10
35607;DHT22;21729;58.392;15.656;2022-11-20T13:57:53;-0.10;77.70
35607;DHT22;21729;58.392;15.656;2022-11-20T14:00:23;-0.10;78.90
35607;DHT22;21729;58.392;15.656;2022-11-20T14:03:08;-0.10;95.30
35607;DHT22;21729;58.392;15.656;2022-11-20T14:05:40;-0.10;99.90
35607;DHT22;21729;58.392;15.656;2022-11-20T14:08:23;-0.10;92.80
35607;DHT22;21729;58.392;15.656;2022-11-20T14:11:03;0.20;90.80
35607;DHT22;21729;58.392;15.656;2022-11-20T14:13:30;0.00;88.00
35607;DHT22;21729;58.392;15.656;2022-11-20T14:15:57;-0.10;87.30
35607;DHT22;21729;58.392;15.656;2022-11-20T14:18:26;0.10;76.40
35607;DHT22;21729;58.392;15.656;2022-11-20T14:20:53;-0.10;76.10
35607;DHT22;21729;58.392;15.656;2022-11-20T14:23:25;0.00;78.80
35607;DHT22;21729;58.392;15.656;2022-11-20T14:25:55;0.00;75.30
35607;DHT22;21729;58.392;15.656;2022-11-20T14:28:26;-0.20;84.40
35607;DHT22;21729;58.392;15.656;2022-11-20T14:30:54;-0.10;89.10
35607;DHT22;21729;58.392;15.656;2022-11-20T14:33:22;-0.10;97.50
35607;DHT22;21729;58.392;15.656;2022-11-20T14:35:53;-0.20;99.90
35607;DHT22;21729;58.392;15.656;2022-11-20T14:38:24;-0.20;89.60
35607;DHT22;21729;58.392;15.656;2022-11-20T14:40:53;0.10;95.30
35607;DHT22;21729;58.392;15.656;2022-11-20T14:43:23;-0.10;99.90
35607;DHT22;21729;58.392;15.656;2022-11-20T14:45:56;-0.20;99.90
35607;DHT22;21729;58.392;15.656;2022-11-20T14:48:29;-0.20;99.90
35607;DHT22;21729;58.392;15.656;2022-11-20T14:50:57;-0.20;99.90
35607;DHT22;21729;58.392;15.656;2022-11-20T14:53:25;-0.20;99.90
35607;DHT22;21729;58.392;15.656;2022-11-20T14:55:58;0.10;99.90
35607;DHT22;21729;58.392;15.656;2022-11-20T14:58:27;0.10;99.90
35607;DHT22;21729;58.392;15.656;2022-11-20T15:00:56;-0.20;99.90
35607;DHT22;21729;58.392;15.656;2022-11-20T15:03:30;-0.20;99.90
35607;DHT22;21729;58.392;15.656;2022-11-20T15:05:57;-0.20;99.90
35607;DHT22;21729;58.392;15.656;2022-11-20T15:08:24;-0.20;99.90
35607;DHT22;21729;58.392;15.656;2022-11-20T15:10:53;-0.10;99.90
35607;DHT22;21729;58.392;15.656;2022-11-20T15:13:26;-0.10;99.90
35607;DHT22;21729;58.392;15.656;2022-11-20T15:15:57;0.00;99.90
35607;DHT22;21729;58.392;15.656;2022-11-20T15:18:28;-0.10;99.90
35607;DHT22;21729;58.392;15.656;2022-11-20T15:20:56;-0.20;99.90
35607;DHT22;21729;58.392;15.656;2022-11-20T15:23:24;-0.20;99.90
35607;DHT22;21729;58.392;15.656;2022-11-20T15:25:53;-0.20;99.90
35607;DHT22;21729;58.392;15.656;2022-11-20T15:28:21;-0.20;99.90
35607;DHT22;21729;58.392;15.656;2022-11-20T15:30:51;0.10;99.90
35607;DHT22;21729;58.392;15.656;2022-11-20T15:33:18;-0.20;99.90
35607;DHT22;21729;58.392;15.656;2022-11-20T15:35:45;-0.10;99.90
35607;DHT22;21729;58.392;15.656;2022-11-20T15:38:12;-0.20;99.90
35607;DHT22;21729;58.392;15.656;2022-11-20T15:40:39;-0.20;99.90
35607;DHT22;21729;58.392;15.656;2022-11-20T15:43:06;-0.20;99.90
35607;DHT22;21729;58.392;15.656;2022-11-20T15:45:37;-0.10;99.90
35607;DHT22;21729;58.392;15.656;2022-11-20T15:48:09;-0.10;97.30